Nearby METAR Reports

 

KBMG - Bloomington, Indiana, USA
Distance from station: SSE 11mi, 18km
Updated: Wed, 17-Oct-2018 6:53am EDT
Clear
Clear
 Wind from calm
Wind: Calm
Temperature: 39°F , 4°C
Dew Point: 39°F , 4°C
Humidity: 100%
Barometer: 30.22 inHg , 1023.4 hPa
Clouds: Clear
Visibility: 10 miles , 16 km
2018/10/17 10:53 KBMG 171053Z 00000KT 10SM CLR 04/04 A3022 RMK AO2 SLP237 T00440039
KHUF - Terre Haute, Indiana, USA
Distance from station: WNW 34mi, 54km
Updated: Wed, 17-Oct-2018 6:53am EDT
Clear
Clear
 Wind from WSW
Wind: WSW 5 mph , 7 km/h
Temperature: 39°F , 4°C
Wind Chill: 35°F , 2°C
Dew Point: 36°F , 2°C
Humidity: 87%
Barometer: 30.23 inHg , 1023.7 hPa
Clouds: Clear
Visibility: 10 miles , 16 km
2018/10/17 10:53 KHUF 171053Z 24004KT 10SM CLR 04/02 A3023 RMK AO2 SLP240 T00390022
 
KIND - Indianapolis, Indiana, USA
Distance from station: NE 36mi, 58km
Updated: Wed, 17-Oct-2018 6:54am EDT
Few Clouds
Few Clouds
 Wind from WSW
Wind: WSW 10 mph , 17 km/h
Temperature: 39°F , 4°C
Wind Chill: 32°F , 0°C
Dew Point: 36°F , 2°C
Humidity: 87%
Barometer: 30.20 inHg , 1022.7 hPa
Clouds: Few Clouds
Visibility: 10 miles , 16 km
Cloud details: Few Clouds 20000 ft
Few Clouds 25000 ft
2018/10/17 10:54 KIND 171054Z 24009KT 10SM FEW200 FEW250 04/02 A3020 RMK AO2 SLP230 T00390022
KBAK - Columbus/Balkala, Indiana, USA
Distance from station: E 43mi, 69km
Updated: Wed, 17-Oct-2018 7:45am EDT
Clear
Clear
 Wind from SW
Wind: SW 5 mph , 7 km/h
Temperature: 37°F , 3°C
Wind Chill: 33°F , 1°C
Dew Point: 34°F , 1°C
Humidity: 87%
Barometer: 30.23 inHg , 1023.7 hPa
Clouds: Clear
Visibility: 10 miles , 16 km
2018/10/17 11:45 KBAK 171145Z 22004KT 10SM SKC 03/01 A3023
 
KEYE - Indianapolis, Indiana, USA
Distance from station: NNE 43mi, 69km
Updated: Wed, 17-Oct-2018 6:53am EDT
Few Clouds
Few Clouds
 Wind from WSW
Wind: WSW 6 mph , 9 km/h
Temperature: 43°F , 6°C
Wind Chill: 39°F , 4°C
Dew Point: 36°F , 2°C
Humidity: 76%
Barometer: 30.19 inHg , 1022.4 hPa
Clouds: Few Clouds
Visibility: 10 miles , 16 km
Cloud details: Few Clouds 6000 ft
2018/10/17 10:53 KEYE 171053Z AUTO 25005KT 10SM FEW060 06/02 A3019 RMK AO2 SLP225 T00560017
KDCY - Daviess County, Indiana, USA
Distance from station: SSW 47mi, 76km
Updated: Wed, 17-Oct-2018 7:35am EDT
Clear
Clear
 Wind from calm
Wind: Calm
Temperature: 39°F , 4°C
Dew Point: 37°F , 3°C
Humidity: 93%
Barometer: 30.26 inHg , 1024.7 hPa
Clouds: Clear
Visibility: 10 miles , 16 km
2018/10/17 11:35 KDCY 171135Z AUTO 00000KT 10SM CLR 04/03 A3026 RMK AO2 T00420030
 
KGEZ - Shelbyville, Indiana, USA
Distance from station: ENE 52mi, 83km
Updated: Wed, 17-Oct-2018 6:53am EDT
Clear
Clear
 Wind from SW
Wind: SW 5 mph , 7 km/h
Temperature: 36°F , 2°C
Wind Chill: 32°F , 0°C
Dew Point: 34°F , 1°C
Humidity: 93%
Barometer: 30.20 inHg , 1022.7 hPa
Clouds: Clear
Visibility: 10 miles , 16 km
2018/10/17 10:53 KGEZ 171053Z AUTO 22004KT 10SM CLR 02/01 A3020 RMK AO2 SLP230 T00220006
KRSV - Robinson Muni, Illinois, USA
Distance from station: WSW 55mi, 88km
Updated: Wed, 17-Oct-2018 7:35am EDT
Clear
Clear
 Wind from WNW
Wind: WNW 5 mph , 7 km/h
Temperature: 41°F , 5°C
Wind Chill: 38°F , 3°C
Dew Point: 37°F , 3°C
Humidity: 87%
Barometer: 30.27 inHg , 1025.1 hPa
Clouds: Clear
Visibility: 10 miles , 16 km
2018/10/17 11:35 KRSV 171135Z AUTO 29004KT 10SM CLR 05/03 A3027 RMK AO2 T00450031
 
KTYQ - Indianapolis Exc, Indiana, USA
Distance from station: NNE 56mi, 90km
Updated: Wed, 17-Oct-2018 7:35am EDT
Clear
Clear
 Wind from WSW
Wind: WSW 8 mph , 13 km/h
Temperature: 39°F , 4°C
Wind Chill: 33°F , 1°C
Dew Point: 36°F , 2°C
Humidity: 87%
Barometer: 30.19 inHg , 1022.4 hPa
Clouds: Clear
Visibility: 10 miles , 16 km
2018/10/17 11:35 KTYQ 171135Z AUTO 25007KT 10SM CLR 04/02 A3019 RMK AO2 T00400017
KMQJ - Indianapolis Reg, Indiana, USA
Distance from station: NE 57mi, 92km
Updated: Wed, 17-Oct-2018 7:36am EDT
Clear
Clear
 Wind from WSW
Wind: WSW 7 mph , 11 km/h
Temperature: 39°F , 4°C
Wind Chill: 34°F , 1°C
Dew Point: 39°F , 4°C
Humidity: 100%
Barometer: 30.19 inHg , 1022.4 hPa
Clouds: Clear
Visibility: 10 miles , 16 km
2018/10/17 11:36 KMQJ 171136Z AUTO 24006KT 10SM CLR 04/04 A3019 RMK AO1
 
KPRG - Paris, Illinois, USA
Distance from station: WNW 59mi, 94km
Updated: Wed, 17-Oct-2018 7:35am EDT
Clear
Clear
 Wind from W
Wind: W 8 mph , 13 km/h
Temperature: 39°F , 4°C
Wind Chill: 33°F , 1°C
Dew Point: 36°F , 2°C
Humidity: 87%
Barometer: 30.25 inHg , 1024.4 hPa
Clouds: Clear
Visibility: 10 miles , 16 km
2018/10/17 11:35 KPRG 171135Z AUTO 27007KT 10SM CLR 04/02 A3025 RMK AO2 T00380016
KLWV - Lawrenceville, Illinois, USA
Distance from station: SW 61mi, 98km
Updated: Wed, 17-Oct-2018 6:53am EDT
Clear
Clear
 Wind from SSW
Wind: SSW 6 mph , 9 km/h
Temperature: 37°F , 3°C
Wind Chill: 32°F , 0°C
Dew Point: 36°F , 2°C
Humidity: 93%
Barometer: 30.26 inHg , 1024.7 hPa
Clouds: Clear
Visibility: 10 miles , 16 km
2018/10/17 10:53 KLWV 171053Z AUTO 20005KT 10SM CLR 03/02 A3026 RMK AO2 SLP247 T00280017
 
KAJG - Mount Carmel, Illinois, USA
Distance from station: SW 73mi, 117km
Updated: Wed, 17-Oct-2018 7:35am EDT
Clear
Clear
 Wind from W
Wind: W 6 mph , 9 km/h
Temperature: 39°F , 4°C
Wind Chill: 35°F , 2°C
Dew Point: 37°F , 3°C
Humidity: 93%
Barometer: 30.27 inHg , 1025.1 hPa
Clouds: Clear
Visibility: 10 miles , 16 km
2018/10/17 11:35 KAJG 171135Z AUTO 26005KT 10SM CLR 04/03 A3027 RMK AO2 T00360032
KHNB - Huntingburg, Indiana, USA
Distance from station: S 74mi, 119km
Updated: Wed, 17-Oct-2018 6:56am EDT
Clear
Clear
 Wind from S
Wind: S 5 mph , 7 km/h
Temperature: 39°F , 4°C
Wind Chill: 35°F , 2°C
Dew Point: 37°F , 3°C
Humidity: 93%
Barometer: 30.27 inHg , 1025.1 hPa
Clouds: Clear
Visibility: 10 miles , 16 km
2018/10/17 10:56 KHNB 171056Z AUTO 19004KT 10SM CLR 04/03 A3027 RMK AO2 SLP255 T00390033
 
KLAF - Lafayette, Indiana, USA
Distance from station: N 78mi, 126km
Updated: Wed, 17-Oct-2018 6:54am EDT
Clear
Clear
 Wind from WSW
Wind: WSW 5 mph , 7 km/h
Temperature: 37°F , 3°C
Wind Chill: 33°F , 1°C
Dew Point: 36°F , 2°C
Humidity: 93%
Barometer: 30.17 inHg , 1021.7 hPa
Clouds: Clear
Visibility: 10 miles , 16 km
2018/10/17 10:54 KLAF 171054Z 24004KT 10SM CLR 03/02 A3017 RMK AO2 SLP220 T00330017
KDNV - Danville, Illinois, USA
Distance from station: NW 79mi, 126km
Updated: Wed, 17-Oct-2018 7:35am EDT
Clear
Clear
 Wind from W
Wind: W 8 mph , 13 km/h
Temperature: 39°F , 4°C
Wind Chill: 33°F , 1°C
Dew Point: 36°F , 2°C
Humidity: 87%
Barometer: 30.19 inHg , 1022.4 hPa
Clouds: Clear
Visibility: 10 miles , 16 km
2018/10/17 11:35 KDNV 171135Z AUTO 26007KT 10SM CLR 04/02 A3019 RMK AO2 T00400020
 
KAID - Anderson Municip, Indiana, USA
Distance from station: NE 81mi, 130km
Updated: Wed, 17-Oct-2018 7:35am EDT
Clear
Clear
 Wind from SW
Wind: SW 6 mph , 9 km/h
Temperature: 41°F , 5°C
Wind Chill: 37°F , 3°C
Dew Point: 36°F , 2°C
Humidity: 81%
Barometer: 30.18 inHg , 1022 hPa
Clouds: Clear
Visibility: 10 miles , 16 km
2018/10/17 11:35 KAID 171135Z AUTO 23005KT 10SM CLR 05/02 A3018 RMK AO2 T00460017
KMTO - Mattoon/Charlest, Illinois, USA
Distance from station: W 85mi, 136km
Updated: Wed, 17-Oct-2018 6:53am EDT
Clear
Clear
 Wind from W
Wind: W 8 mph , 13 km/h
Temperature: 45°F , 7°C
Wind Chill: 41°F , 5°C
Dew Point: 36°F , 2°C
Humidity: 71%
Barometer: 30.23 inHg , 1023.7 hPa
Clouds: Clear
Visibility: 10 miles , 16 km
2018/10/17 10:53 KMTO 171053Z AUTO 27007KT 10SM CLR 07/02 A3023 RMK AO2 SLP239 T00670017
 
KOLY - Olney-Noble, Illinois, USA
Distance from station: WSW 89mi, 144km
Updated: Wed, 17-Oct-2018 7:35am EDT
Clear
Clear
 Wind from W
Wind: W 3 mph , 6 km/h
Temperature: 37°F , 3°C
Dew Point: 36°F , 2°C
Humidity: 93%
Barometer: 30.28 inHg , 1025.4 hPa
Clouds: Clear
Visibility: 10 miles , 16 km
2018/10/17 11:35 KOLY 171135Z AUTO 27003KT 10SM CLR 03/02 A3028 RMK AO2 T00340024
KOKK - Kokomo, Indiana, USA
Distance from station: NNE 92mi, 148km
Updated: Wed, 17-Oct-2018 6:56am EDT
Clear
Clear
 Wind from WSW
Wind: WSW 12 mph , 19 km/h
Temperature: 43°F , 6°C
Wind Chill: 37°F , 3°C
Dew Point: 36°F , 2°C
Humidity: 76%
Barometer: 30.15 inHg , 1021 hPa
Clouds: Clear
Visibility: 10 miles , 16 km
2018/10/17 10:56 KOKK 171056Z AUTO 25010KT 10SM CLR 06/02 A3015 RMK AO2 SLP213 T00610022